KBLV

Scott AFB / Midamerica Airport

Belleville, Illinois, USA
METAR KBLV 231556Z AUTO 24006KT 10SM BKN010 09/07 A3027 RMK AO2 SLP255 T00920070 $
Observed Flight Rules
Feb-23 @ 15:56 UTC (36 minutes ago) Marginal Visual Flight Rules
Wind Visibility Clouds
240° at 6 knots 10 miles
  • Broken at 1,000' AGL
Temperatures Readings
Current 9°C / 48°F
Dewpoint 7°C / 45°F
Humidity 87%
Altimeter 30.27" Hg
Pressure 1025.5 hPa
Elevation 138
METAR KBLV 231556Z AUTO 24006KT 10SM BKN010 09/07 A3027 RMK AO2 SLP255 T00920070 $
Observed Flight Rules
Feb-23 @ 15:56 UTC
(36 minutes ago)
MVFR
Wind Visibility
240° at 6 knots 10 miles
Clouds
  • Broken at 1,000' AGL
Temperature Dewpoint
9°C / 48°F 7°C / 45°F
Humidity Altimeter Pressure
87% 30.27" Hg 1025.5 hPa